sensor_id;sensor_type;location;lat;lon;timestamp;pressure;altitude;pressure_sealevel;temperature;humidity
37648;BME280;23490;53.656;10.076;2024-01-15T00:01:06;-10956.34;;;-145.95;100.00
37648;BME280;23490;53.656;10.076;2024-01-15T00:03:32;-10956.34;;;-145.95;100.00
37648;BME280;23490;53.656;10.076;2024-01-15T00:05:57;-10956.34;;;-145.95;100.00
37648;BME280;23490;53.656;10.076;2024-01-15T00:08:23;-10956.34;;;-145.95;100.00
37648;BME280;23490;53.656;10.076;2024-01-15T00:10:48;-10956.34;;;-145.95;100.00
37648;BME280;23490;53.656;10.076;2024-01-15T00:13:13;-10956.34;;;-145.95;100.00
37648;BME280;23490;53.656;10.076;2024-01-15T00:15:39;-10956.34;;;-145.95;100.00
37648;BME280;23490;53.656;10.076;2024-01-15T00:18:04;-10956.34;;;-145.95;100.00
37648;BME280;23490;53.656;10.076;2024-01-15T00:20:30;-10956.34;;;-145.95;100.00
37648;BME280;23490;53.656;10.076;2024-01-15T00:22:55;-10956.34;;;-145.95;100.00
37648;BME280;23490;53.656;10.076;2024-01-15T00:25:20;-10956.34;;;-145.95;100.00
37648;BME280;23490;53.656;10.076;2024-01-15T00:27:46;-10956.34;;;-145.95;100.00
37648;BME280;23490;53.656;10.076;2024-01-15T00:30:12;-10956.34;;;-145.95;100.00
37648;BME280;23490;53.656;10.076;2024-01-15T00:32:37;-10956.34;;;-145.95;100.00
37648;BME280;23490;53.656;10.076;2024-01-15T00:35:03;-10956.34;;;-145.95;100.00
37648;BME280;23490;53.656;10.076;2024-01-15T00:37:28;-10956.34;;;-145.95;100.00
37648;BME280;23490;53.656;10.076;2024-01-15T00:39:54;-10956.34;;;-145.95;100.00
37648;BME280;23490;53.656;10.076;2024-01-15T00:42:19;-10956.34;;;-145.95;100.00
37648;BME280;23490;53.656;10.076;2024-01-15T00:44:44;-10956.34;;;-145.95;100.00
37648;BME280;23490;53.656;10.076;2024-01-15T00:47:09;-10956.34;;;-145.95;100.00
37648;BME280;23490;53.656;10.076;2024-01-15T00:49:35;-10956.34;;;-145.95;100.00
37648;BME280;23490;53.656;10.076;2024-01-15T00:52:00;-10956.34;;;-145.95;100.00
37648;BME280;23490;53.656;10.076;2024-01-15T00:54:26;-10956.34;;;-145.95;100.00
37648;BME280;23490;53.656;10.076;2024-01-15T00:56:51;-10956.34;;;-145.95;100.00
37648;BME280;23490;53.656;10.076;2024-01-15T00:59:17;-10956.34;;;-145.95;100.00
37648;BME280;23490;53.656;10.076;2024-01-15T01:01:43;-10956.34;;;-145.95;100.00
37648;BME280;23490;53.656;10.076;2024-01-15T01:04:09;-10956.34;;;-145.95;100.00
37648;BME280;23490;53.656;10.076;2024-01-15T01:06:35;-10956.34;;;-145.95;100.00
37648;BME280;23490;53.656;10.076;2024-01-15T01:09:00;-10956.34;;;-145.95;100.00
37648;BME280;23490;53.656;10.076;2024-01-15T01:11:26;-10956.34;;;-145.95;100.00
37648;BME280;23490;53.656;10.076;2024-01-15T01:13:51;-10956.34;;;-145.95;100.00
37648;BME280;23490;53.656;10.076;2024-01-15T01:16:16;-10956.34;;;-145.95;100.00
37648;BME280;23490;53.656;10.076;2024-01-15T01:18:42;-10956.34;;;-145.95;100.00
37648;BME280;23490;53.656;10.076;2024-01-15T01:21:07;-10956.34;;;-145.95;100.00
37648;BME280;23490;53.656;10.076;2024-01-15T01:23:32;-10956.34;;;-145.95;100.00
37648;BME280;23490;53.656;10.076;2024-01-15T01:25:58;-10956.34;;;-145.95;100.00
37648;BME280;23490;53.656;10.076;2024-01-15T01:28:23;-10956.34;;;-145.95;100.00
37648;BME280;23490;53.656;10.076;2024-01-15T01:30:48;-10956.34;;;-145.95;100.00
37648;BME280;23490;53.656;10.076;2024-01-15T01:33:14;-10956.34;;;-145.95;100.00
37648;BME280;23490;53.656;10.076;2024-01-15T01:35:39;-10956.34;;;-145.95;100.00
37648;BME280;23490;53.656;10.076;2024-01-15T01:38:04;-10956.34;;;-145.95;100.00
37648;BME280;23490;53.656;10.076;2024-01-15T01:40:30;-10956.34;;;-145.95;100.00
37648;BME280;23490;53.656;10.076;2024-01-15T01:42:55;-10956.34;;;-145.95;100.00
37648;BME280;23490;53.656;10.076;2024-01-15T01:45:20;-10956.34;;;-145.95;100.00
37648;BME280;23490;53.656;10.076;2024-01-15T01:47:46;-10956.34;;;-145.95;100.00
37648;BME280;23490;53.656;10.076;2024-01-15T01:50:12;-10956.34;;;-145.95;100.00
37648;BME280;23490;53.656;10.076;2024-01-15T01:52:38;-10956.34;;;-145.95;100.00
37648;BME280;23490;53.656;10.076;2024-01-15T01:55:06;-10956.34;;;-145.95;100.00
37648;BME280;23490;53.656;10.076;2024-01-15T01:57:32;-10956.34;;;-145.95;100.00
37648;BME280;23490;53.656;10.076;2024-01-15T01:59:59;-10956.34;;;-145.95;100.00
37648;BME280;23490;53.656;10.076;2024-01-15T02:02:25;-10956.34;;;-145.95;100.00
37648;BME280;23490;53.656;10.076;2024-01-15T02:04:50;-10956.34;;;-145.95;100.00
37648;BME280;23490;53.656;10.076;2024-01-15T02:07:16;-10956.34;;;-145.95;100.00
37648;BME280;23490;53.656;10.076;2024-01-15T02:09:44;-10956.34;;;-145.95;100.00
37648;BME280;23490;53.656;10.076;2024-01-15T02:12:10;-10956.34;;;-145.95;100.00
37648;BME280;23490;53.656;10.076;2024-01-15T02:14:35;-10956.34;;;-145.95;100.00
37648;BME280;23490;53.656;10.076;2024-01-15T02:17:01;-10956.34;;;-145.95;100.00
37648;BME280;23490;53.656;10.076;2024-01-15T02:19:26;-10956.34;;;-145.95;100.00
37648;BME280;23490;53.656;10.076;2024-01-15T02:21:52;-10956.34;;;-145.95;100.00
37648;BME280;23490;53.656;10.076;2024-01-15T02:24:17;-10956.34;;;-145.95;100.00
37648;BME280;23490;53.656;10.076;2024-01-15T02:26:42;-10956.34;;;-145.95;100.00
37648;BME280;23490;53.656;10.076;2024-01-15T02:29:08;-10956.34;;;-145.95;100.00
37648;BME280;23490;53.656;10.076;2024-01-15T02:31:35;-10956.34;;;-145.95;100.00
37648;BME280;23490;53.656;10.076;2024-01-15T02:34:01;-10956.34;;;-145.95;100.00
37648;BME280;23490;53.656;10.076;2024-01-15T02:36:26;-10956.34;;;-145.95;100.00
37648;BME280;23490;53.656;10.076;2024-01-15T02:38:51;-10956.34;;;-145.95;100.00
37648;BME280;23490;53.656;10.076;2024-01-15T02:41:17;-10956.34;;;-145.95;100.00
37648;BME280;23490;53.656;10.076;2024-01-15T02:43:42;-10956.34;;;-145.95;100.00
37648;BME280;23490;53.656;10.076;2024-01-15T02:46:08;-10956.34;;;-145.95;100.00
37648;BME280;23490;53.656;10.076;2024-01-15T02:48:33;-10956.34;;;-145.95;100.00
37648;BME280;23490;53.656;10.076;2024-01-15T02:51:00;-10956.34;;;-145.95;100.00
37648;BME280;23490;53.656;10.076;2024-01-15T02:53:26;-10956.34;;;-145.95;100.00
37648;BME280;23490;53.656;10.076;2024-01-15T02:55:51;-10956.34;;;-145.95;100.00
37648;BME280;23490;53.656;10.076;2024-01-15T02:58:16;-10956.34;;;-145.95;100.00
37648;BME280;23490;53.656;10.076;2024-01-15T03:00:42;-10956.34;;;-145.95;100.00
37648;BME280;23490;53.656;10.076;2024-01-15T03:03:07;-10956.34;;;-145.95;100.00
37648;BME280;23490;53.656;10.076;2024-01-15T03:05:33;-10956.34;;;-145.95;100.00
37648;BME280;23490;53.656;10.076;2024-01-15T03:07:58;-10956.34;;;-145.95;100.00
37648;BME280;23490;53.656;10.076;2024-01-15T03:10:23;-10956.34;;;-145.95;100.00
37648;BME280;23490;53.656;10.076;2024-01-15T03:12:49;-10956.34;;;-145.95;100.00
37648;BME280;23490;53.656;10.076;2024-01-15T03:15:14;-10956.34;;;-145.95;100.00
37648;BME280;23490;53.656;10.076;2024-01-15T03:17:41;-10956.34;;;-145.95;100.00
37648;BME280;23490;53.656;10.076;2024-01-15T03:20:07;-10956.34;;;-145.95;100.00
37648;BME280;23490;53.656;10.076;2024-01-15T03:22:33;-10956.34;;;-145.95;100.00
37648;BME280;23490;53.656;10.076;2024-01-15T03:24:58;-10956.34;;;-145.95;100.00
37648;BME280;23490;53.656;10.076;2024-01-15T03:27:24;-10956.34;;;-145.95;100.00
37648;BME280;23490;53.656;10.076;2024-01-15T03:29:51;-10956.34;;;-145.95;100.00
37648;BME280;23490;53.656;10.076;2024-01-15T03:32:16;-10956.34;;;-145.95;100.00
37648;BME280;23490;53.656;10.076;2024-01-15T03:34:41;-10956.34;;;-145.95;100.00
37648;BME280;23490;53.656;10.076;2024-01-15T03:37:07;-10956.34;;;-145.95;100.00
37648;BME280;23490;53.656;10.076;2024-01-15T03:39:32;-10956.34;;;-145.95;100.00
37648;BME280;23490;53.656;10.076;2024-01-15T03:41:58;-10956.34;;;-145.95;100.00
37648;BME280;23490;53.656;10.076;2024-01-15T03:44:23;-10956.34;;;-145.95;100.00
37648;BME280;23490;53.656;10.076;2024-01-15T03:46:48;-10956.34;;;-145.95;100.00
37648;BME280;23490;53.656;10.076;2024-01-15T03:49:14;-10956.34;;;-145.95;100.00
37648;BME280;23490;53.656;10.076;2024-01-15T03:51:39;-10956.34;;;-145.95;100.00
37648;BME280;23490;53.656;10.076;2024-01-15T03:54:04;-10956.34;;;-145.95;100.00
37648;BME280;23490;53.656;10.076;2024-01-15T03:56:29;-10956.34;;;-145.95;100.00
37648;BME280;23490;53.656;10.076;2024-01-15T03:58:55;-10956.34;;;-145.95;100.00
37648;BME280;23490;53.656;10.076;2024-01-15T04:01:20;-10956.34;;;-145.95;100.00
37648;BME280;23490;53.656;10.076;2024-01-15T04:03:45;-10956.34;;;-145.95;100.00
37648;BME280;23490;53.656;10.076;2024-01-15T04:06:11;-10956.34;;;-145.95;100.00
37648;BME280;23490;53.656;10.076;2024-01-15T04:08:36;-10956.34;;;-145.95;100.00
37648;BME280;23490;53.656;10.076;2024-01-15T04:11:01;-10956.34;;;-145.95;100.00
37648;BME280;23490;53.656;10.076;2024-01-15T04:13:27;-10956.34;;;-145.95;100.00
37648;BME280;23490;53.656;10.076;2024-01-15T04:15:53;-10956.34;;;-145.95;100.00
37648;BME280;23490;53.656;10.076;2024-01-15T04:18:18;-10956.34;;;-145.95;100.00
37648;BME280;23490;53.656;10.076;2024-01-15T04:20:43;-10956.34;;;-145.95;100.00
37648;BME280;23490;53.656;10.076;2024-01-15T04:23:09;-10956.34;;;-145.95;100.00
37648;BME280;23490;53.656;10.076;2024-01-15T04:25:34;-10956.34;;;-145.95;100.00
37648;BME280;23490;53.656;10.076;2024-01-15T04:28:00;-10956.34;;;-145.95;100.00
37648;BME280;23490;53.656;10.076;2024-01-15T04:30:26;-10956.34;;;-145.95;100.00
37648;BME280;23490;53.656;10.076;2024-01-15T04:32:51;-10956.34;;;-145.95;100.00
37648;BME280;23490;53.656;10.076;2024-01-15T04:35:16;-10956.34;;;-145.95;100.00
37648;BME280;23490;53.656;10.076;2024-01-15T04:37:42;-10956.34;;;-145.95;100.00
37648;BME280;23490;53.656;10.076;2024-01-15T04:40:08;-10956.34;;;-145.95;100.00
37648;BME280;23490;53.656;10.076;2024-01-15T04:42:33;-10956.34;;;-145.95;100.00
37648;BME280;23490;53.656;10.076;2024-01-15T04:44:59;-10956.34;;;-145.95;100.00
37648;BME280;23490;53.656;10.076;2024-01-15T04:47:24;-10956.34;;;-145.95;100.00
37648;BME280;23490;53.656;10.076;2024-01-15T04:49:50;-10956.34;;;-145.95;100.00
37648;BME280;23490;53.656;10.076;2024-01-15T04:52:16;-10956.34;;;-145.95;100.00
37648;BME280;23490;53.656;10.076;2024-01-15T04:54:41;-10956.34;;;-145.95;100.00
37648;BME280;23490;53.656;10.076;2024-01-15T04:57:07;-10956.34;;;-145.95;100.00
37648;BME280;23490;53.656;10.076;2024-01-15T04:59:32;-10956.34;;;-145.95;100.00
37648;BME280;23490;53.656;10.076;2024-01-15T05:01:58;-10956.34;;;-145.95;100.00
37648;BME280;23490;53.656;10.076;2024-01-15T05:04:23;-10956.34;;;-145.95;100.00
37648;BME280;23490;53.656;10.076;2024-01-15T05:06:50;-10956.34;;;-145.95;100.00
37648;BME280;23490;53.656;10.076;2024-01-15T05:09:17;-10956.34;;;-145.95;100.00
37648;BME280;23490;53.656;10.076;2024-01-15T05:11:43;-10956.34;;;-145.95;100.00
37648;BME280;23490;53.656;10.076;2024-01-15T05:14:08;-10956.34;;;-145.95;100.00
37648;BME280;23490;53.656;10.076;2024-01-15T05:16:34;-10956.34;;;-145.95;100.00
37648;BME280;23490;53.656;10.076;2024-01-15T05:18:59;-10956.34;;;-145.95;100.00
37648;BME280;23490;53.656;10.076;2024-01-15T05:21:24;-10956.34;;;-145.95;100.00
37648;BME280;23490;53.656;10.076;2024-01-15T05:23:50;-10956.34;;;-145.95;100.00
37648;BME280;23490;53.656;10.076;2024-01-15T05:26:15;-10699.00;;;-145.95;100.00
37648;BME280;23490;53.656;10.076;2024-01-15T05:28:41;-10954.84;;;-145.95;100.00
37648;BME280;23490;53.656;10.076;2024-01-15T05:31:08;-10954.84;;;-145.95;100.00
37648;BME280;23490;53.656;10.076;2024-01-15T05:33:33;-10699.00;;;-145.95;100.00
37648;BME280;23490;53.656;10.076;2024-01-15T05:35:59;-10187.28;;;-145.95;100.00
37648;BME280;23490;53.656;10.076;2024-01-15T05:38:24;-10187.28;;;-145.95;100.00
37648;BME280;23490;53.656;10.076;2024-01-15T05:40:50;-10187.28;;;-145.95;100.00
37648;BME280;23490;53.656;10.076;2024-01-15T05:43:15;-9419.56;;;-145.95;100.00
37648;BME280;23490;53.656;10.076;2024-01-15T05:45:43;-8907.66;;;-145.95;100.00
37648;BME280;23490;53.656;10.076;2024-01-15T05:48:08;-8651.66;;;-145.95;100.00
37648;BME280;23490;53.656;10.076;2024-01-15T05:50:34;-8139.63;;;-145.95;100.00
37648;BME280;23490;53.656;10.076;2024-01-15T05:52:59;-8651.66;;;-145.95;100.00
37648;BME280;23490;53.656;10.076;2024-01-15T05:55:24;-7883.56;;;-145.95;100.00
37648;BME280;23490;53.656;10.076;2024-01-15T05:57:50;-8139.63;;;-145.95;100.00
37648;BME280;23490;53.656;10.076;2024-01-15T06:00:15;-9163.63;;;-145.95;100.00
37648;BME280;23490;53.656;10.076;2024-01-15T06:02:41;-9163.63;;;-145.95;100.00
37648;BME280;23490;53.656;10.076;2024-01-15T06:05:06;-9675.50;;;-145.95;100.00
37648;BME280;23490;53.656;10.076;2024-01-15T06:07:34;-10187.28;;;-145.95;100.00
37648;BME280;23490;53.656;10.076;2024-01-15T06:09:59;-10443.16;;;-145.95;100.00
37648;BME280;23490;53.656;10.076;2024-01-15T06:12:25;-10443.16;;;-145.95;100.00
37648;BME280;23490;53.656;10.076;2024-01-15T06:14:50;-10699.00;;;-145.95;100.00
37648;BME280;23490;53.656;10.076;2024-01-15T06:17:15;-10954.84;;;-145.95;100.00
37648;BME280;23490;53.656;10.076;2024-01-15T06:19:41;-10699.00;;;-145.95;100.00
37648;BME280;23490;53.656;10.076;2024-01-15T06:22:06;-10187.28;;;-145.95;100.00
37648;BME280;23490;53.656;10.076;2024-01-15T06:24:31;-9419.56;;;-145.95;100.00
37648;BME280;23490;53.656;10.076;2024-01-15T06:26:57;-7371.41;;;-145.95;100.00
37648;BME280;23490;53.656;10.076;2024-01-15T06:29:25;-6859.16;;;-145.95;100.00
37648;BME280;23490;53.656;10.076;2024-01-15T06:31:51;-6346.84;;;-145.95;100.00
37648;BME280;23490;53.656;10.076;2024-01-15T06:34:16;-5834.44;;;-145.95;100.00
37648;BME280;23490;53.656;10.076;2024-01-15T06:36:42;-3271.22;;;-145.95;100.00
37648;BME280;23490;53.656;10.076;2024-01-15T06:39:07;-2245.34;;;-145.95;100.00
37648;BME280;23490;53.656;10.076;2024-01-15T06:41:33;1861.25;;;-145.95;100.00
37648;BME280;23490;53.656;10.076;2024-01-15T06:43:58;1604.44;;;-145.95;100.00
37648;BME280;23490;53.656;10.076;2024-01-15T06:46:23;577.38;;;-145.95;100.00
37648;BME280;23490;53.656;10.076;2024-01-15T06:48:49;2888.72;;;-145.95;100.00
37648;BME280;23490;53.656;10.076;2024-01-15T06:51:15;6487.34;;;-145.95;100.00
37648;BME280;23490;53.656;10.076;2024-01-15T06:53:41;11377.53;;;-145.95;100.00
37648;BME280;23490;53.656;10.076;2024-01-15T06:56:06;12407.94;;;-145.95;100.00
37648;BME280;23490;53.656;10.076;2024-01-15T06:58:31;13181.00;;;-145.95;100.00
37648;BME280;23490;53.656;10.076;2024-01-15T07:00:57;14985.44;;;-145.95;100.00
37648;BME280;23490;53.656;10.076;2024-01-15T07:03:23;18855.44;;;-145.95;100.00
37648;BME280;23490;53.656;10.076;2024-01-15T07:05:48;18855.44;;;-145.95;100.00
37648;BME280;23490;53.656;10.076;2024-01-15T07:08:13;17564.94;;;-145.95;100.00
37648;BME280;23490;53.656;10.076;2024-01-15T07:10:38;14469.78;;;-145.95;100.00
37648;BME280;23490;53.656;10.076;2024-01-15T07:13:04;16017.00;;;-145.95;100.00
37648;BME280;23490;53.656;10.076;2024-01-15T07:15:30;14727.59;;;-145.95;100.00
37648;BME280;23490;53.656;10.076;2024-01-15T07:17:56;14727.59;;;-145.95;100.00
37648;BME280;23490;53.656;10.076;2024-01-15T07:20:21;15243.31;;;-145.95;100.00
37648;BME280;23490;53.656;10.076;2024-01-15T07:22:47;13181.00;;;-145.95;100.00
37648;BME280;23490;53.656;10.076;2024-01-15T07:25:12;11377.53;;;-145.95;100.00
37648;BME280;23490;53.656;10.076;2024-01-15T07:27:38;12150.31;;;-145.95;100.00
37648;BME280;23490;53.656;10.076;2024-01-15T07:30:03;13181.00;;;-145.95;100.00
37648;BME280;23490;53.656;10.076;2024-01-15T07:32:31;12665.63;;;-145.95;100.00
37648;BME280;23490;53.656;10.076;2024-01-15T07:34:56;12665.63;;;-145.95;100.00
37648;BME280;23490;53.656;10.076;2024-01-15T07:37:22;10604.91;;;-145.95;100.00
37648;BME280;23490;53.656;10.076;2024-01-15T07:39:49;9575.03;;;-145.95;100.00
37648;BME280;23490;53.656;10.076;2024-01-15T07:42:14;6230.19;;;-145.95;100.00
37648;BME280;23490;53.656;10.076;2024-01-15T07:44:40;5201.69;;;-145.95;100.00
37648;BME280;23490;53.656;10.076;2024-01-15T07:47:05;8288.16;;;-145.95;100.00
37648;BME280;23490;53.656;10.076;2024-01-15T07:49:30;7001.78;;;-145.95;100.00
37648;BME280;23490;53.656;10.076;2024-01-15T07:51:56;9575.03;;;-145.95;100.00
37648;BME280;23490;53.656;10.076;2024-01-15T07:54:21;8802.84;;;-145.95;100.00
37648;BME280;23490;53.656;10.076;2024-01-15T07:56:55;10604.91;;;-145.95;100.00
37648;BME280;23490;53.656;10.076;2024-01-15T07:59:20;13181.00;;;-145.95;100.00
37648;BME280;23490;53.656;10.076;2024-01-15T08:01:46;14727.59;;;-145.95;100.00
37648;BME280;23490;53.656;10.076;2024-01-15T08:04:12;15243.31;;;-145.95;100.00
37648;BME280;23490;53.656;10.076;2024-01-15T08:06:38;18081.06;;;-145.95;100.00
37648;BME280;23490;53.656;10.076;2024-01-15T08:09:03;16532.91;;;-145.95;100.00
37648;BME280;23490;53.656;10.076;2024-01-15T08:11:29;19371.78;;;-145.95;100.00
37648;BME280;23490;53.656;10.076;2024-01-15T08:13:54;18597.31;;;-145.95;100.00
37648;BME280;23490;53.656;10.076;2024-01-15T08:16:20;17048.88;;;-145.95;100.00
37648;BME280;23490;53.656;10.076;2024-01-15T08:18:46;17564.94;;;-145.95;100.00
37648;BME280;23490;53.656;10.076;2024-01-15T08:21:12;16274.94;;;-145.95;100.00
37648;BME280;23490;53.656;10.076;2024-01-15T08:23:37;14985.44;;;-145.95;100.00
37648;BME280;23490;53.656;10.076;2024-01-15T08:26:02;15243.31;;;-145.95;100.00
37648;BME280;23490;53.656;10.076;2024-01-15T08:28:28;14469.78;;;-145.95;100.00
37648;BME280;23490;53.656;10.076;2024-01-15T08:30:53;14727.59;;;-145.95;100.00
37648;BME280;23490;53.656;10.076;2024-01-15T08:33:18;14469.78;;;-145.95;100.00
37648;BME280;23490;53.656;10.076;2024-01-15T08:35:44;12923.28;;;-145.95;100.00
37648;BME280;23490;53.656;10.076;2024-01-15T08:38:09;11892.69;;;-145.95;100.00
37648;BME280;23490;53.656;10.076;2024-01-15T08:40:35;11892.69;;;-145.95;100.00
37648;BME280;23490;53.656;10.076;2024-01-15T08:43:00;9832.47;;;-145.95;100.00
37648;BME280;23490;53.656;10.076;2024-01-15T08:45:27;8802.84;;;-145.95;100.00
37648;BME280;23490;53.656;10.076;2024-01-15T08:47:52;8288.16;;;-145.95;100.00
37648;BME280;23490;53.656;10.076;2024-01-15T08:50:17;5973.03;;;-145.95;100.00
37648;BME280;23490;53.656;10.076;2024-01-15T08:52:43;3916.50;;;-145.95;100.00
37648;BME280;23490;53.656;10.076;2024-01-15T08:55:08;4944.59;;;-145.95;100.00
37648;BME280;23490;53.656;10.076;2024-01-15T08:57:34;4687.53;;;-145.95;100.00
37648;BME280;23490;53.656;10.076;2024-01-15T08:59:59;5458.78;;;-145.95;100.00
37648;BME280;23490;53.656;10.076;2024-01-15T09:02:25;4430.50;;;-145.95;100.00
37648;BME280;23490;53.656;10.076;2024-01-15T09:04:50;834.13;;;-145.95;100.00
37648;BME280;23490;53.656;10.076;2024-01-15T09:07:17;-2501.84;;;-145.95;100.00
37648;BME280;23490;53.656;10.076;2024-01-15T09:09:42;-5321.94;;;-145.95;100.00
37648;BME280;23490;53.656;10.076;2024-01-15T09:12:08;-7371.41;;;-145.95;100.00
37648;BME280;23490;53.656;10.076;2024-01-15T09:14:33;-9419.56;;;-145.95;100.00
37648;BME280;23490;53.656;10.076;2024-01-15T09:16:59;-10187.28;;;-145.95;100.00
37648;BME280;23490;53.656;10.076;2024-01-15T09:19:24;-10954.84;;;-145.95;100.00
37648;BME280;23490;53.656;10.076;2024-01-15T09:21:50;-10956.34;;;-145.95;100.00
37648;BME280;23490;53.656;10.076;2024-01-15T09:24:15;-10956.34;;;-145.95;100.00
37648;BME280;23490;53.656;10.076;2024-01-15T09:26:40;-10956.34;;;-145.95;100.00
37648;BME280;23490;53.656;10.076;2024-01-15T09:29:06;-10956.34;;;-145.95;100.00
37648;BME280;23490;53.656;10.076;2024-01-15T09:31:31;-10956.34;;;-145.95;100.00
37648;BME280;23490;53.656;10.076;2024-01-15T09:33:56;-10956.34;;;-145.95;100.00
37648;BME280;23490;53.656;10.076;2024-01-15T09:36:23;-10956.34;;;-145.95;100.00
37648;BME280;23490;53.656;10.076;2024-01-15T09:38:49;-10956.34;;;-145.95;100.00
37648;BME280;23490;53.656;10.076;2024-01-15T09:41:15;-10956.34;;;-145.95;100.00
37648;BME280;23490;53.656;10.076;2024-01-15T09:43:40;-10956.34;;;-145.95;100.00
37648;BME280;23490;53.656;10.076;2024-01-15T09:46:06;-10956.34;;;-145.95;100.00
37648;BME280;23490;53.656;10.076;2024-01-15T09:48:31;-10956.34;;;-145.95;100.00
37648;BME280;23490;53.656;10.076;2024-01-15T09:51:03;-10956.34;;;-145.95;100.00
37648;BME280;23490;53.656;10.076;2024-01-15T09:53:29;-10956.34;;;-145.95;100.00
37648;BME280;23490;53.656;10.076;2024-01-15T09:55:55;-10956.34;;;-145.95;100.00
37648;BME280;23490;53.656;10.076;2024-01-15T09:58:21;-10956.34;;;-145.95;100.00
37648;BME280;23490;53.656;10.076;2024-01-15T10:00:48;-10956.34;;;-145.95;100.00
37648;BME280;23490;53.656;10.076;2024-01-15T10:03:15;-10956.34;;;-145.95;100.00
37648;BME280;23490;53.656;10.076;2024-01-15T10:05:40;-10956.34;;;-145.95;100.00
37648;BME280;23490;53.656;10.076;2024-01-15T10:08:06;-10956.34;;;-145.95;100.00
37648;BME280;23490;53.656;10.076;2024-01-15T10:10:31;-10956.34;;;-145.95;100.00
37648;BME280;23490;53.656;10.076;2024-01-15T10:12:58;-10956.34;;;-145.95;100.00
37648;BME280;23490;53.656;10.076;2024-01-15T10:15:23;-10956.34;;;-145.95;100.00
37648;BME280;23490;53.656;10.076;2024-01-15T10:17:50;-10956.34;;;-145.95;100.00
37648;BME280;23490;53.656;10.076;2024-01-15T10:20:15;-10956.34;;;-145.95;100.00
37648;BME280;23490;53.656;10.076;2024-01-15T10:22:41;-10956.34;;;-145.95;100.00
37648;BME280;23490;53.656;10.076;2024-01-15T10:25:12;-10956.34;;;-145.95;100.00
37648;BME280;23490;53.656;10.076;2024-01-15T10:27:38;-10956.34;;;-145.95;100.00
37648;BME280;23490;53.656;10.076;2024-01-15T10:30:04;-10956.34;;;-145.95;100.00
37648;BME280;23490;53.656;10.076;2024-01-15T10:32:29;-10956.34;;;-145.95;100.00
37648;BME280;23490;53.656;10.076;2024-01-15T10:34:55;-10956.34;;;-145.95;100.00
37648;BME280;23490;53.656;10.076;2024-01-15T10:37:20;-10956.34;;;-145.95;100.00
37648;BME280;23490;53.656;10.076;2024-01-15T10:39:48;-10956.34;;;-145.95;100.00
37648;BME280;23490;53.656;10.076;2024-01-15T10:42:13;-10956.34;;;-145.95;100.00
37648;BME280;23490;53.656;10.076;2024-01-15T10:44:39;-10956.34;;;-145.95;100.00
37648;BME280;23490;53.656;10.076;2024-01-15T10:47:04;-10956.34;;;-145.95;100.00
37648;BME280;23490;53.656;10.076;2024-01-15T10:49:29;-10956.34;;;-145.95;100.00
37648;BME280;23490;53.656;10.076;2024-01-15T10:51:56;-10956.34;;;-145.95;100.00
37648;BME280;23490;53.656;10.076;2024-01-15T10:54:23;-10956.34;;;-145.95;100.00
37648;BME280;23490;53.656;10.076;2024-01-15T10:56:50;-10956.34;;;-145.95;100.00
37648;BME280;23490;53.656;10.076;2024-01-15T10:59:16;-10956.34;;;-145.95;100.00
37648;BME280;23490;53.656;10.076;2024-01-15T11:01:45;-10956.34;;;-145.95;100.00
37648;BME280;23490;53.656;10.076;2024-01-15T11:04:11;-10956.34;;;-145.95;100.00
37648;BME280;23490;53.656;10.076;2024-01-15T11:06:42;-10956.34;;;-145.95;100.00
37648;BME280;23490;53.656;10.076;2024-01-15T11:09:08;-10956.34;;;-145.95;100.00
37648;BME280;23490;53.656;10.076;2024-01-15T11:11:35;-10956.34;;;-145.95;100.00
37648;BME280;23490;53.656;10.076;2024-01-15T11:14:01;-10956.34;;;-145.95;100.00
37648;BME280;23490;53.656;10.076;2024-01-15T11:16:53;-10956.34;;;-145.95;100.00
37648;BME280;23490;53.656;10.076;2024-01-15T11:19:19;-10956.34;;;-145.95;100.00
37648;BME280;23490;53.656;10.076;2024-01-15T11:21:44;-10956.34;;;-145.95;100.00
37648;BME280;23490;53.656;10.076;2024-01-15T11:24:09;-10956.34;;;-145.95;100.00
37648;BME280;23490;53.656;10.076;2024-01-15T11:26:44;-10956.34;;;-145.95;100.00
37648;BME280;23490;53.656;10.076;2024-01-15T11:34:21;-10956.34;;;-145.95;100.00
37648;BME280;23490;53.656;10.076;2024-01-15T11:37:06;-10956.34;;;-145.95;100.00
37648;BME280;23490;53.656;10.076;2024-01-15T11:42:02;-10956.34;;;-145.95;100.00
37648;BME280;23490;53.656;10.076;2024-01-15T11:44:29;-10956.34;;;-145.95;100.00
37648;BME280;23490;53.656;10.076;2024-01-15T11:46:59;-10956.34;;;-145.95;100.00
37648;BME280;23490;53.656;10.076;2024-01-15T11:52:02;-10956.34;;;-145.95;100.00
37648;BME280;23490;53.656;10.076;2024-01-15T11:54:31;-10956.34;;;-145.95;100.00
37648;BME280;23490;53.656;10.076;2024-01-15T11:57:00;-10699.00;;;-145.95;100.00
37648;BME280;23490;53.656;10.076;2024-01-15T11:59:29;-10187.28;;;-145.95;100.00
37648;BME280;23490;53.656;10.076;2024-01-15T12:01:54;-9675.50;;;-145.95;100.00
37648;BME280;23490;53.656;10.076;2024-01-15T12:04:21;-9675.50;;;-145.95;100.00
37648;BME280;23490;53.656;10.076;2024-01-15T12:06:46;-9931.41;;;-145.95;100.00
37648;BME280;23490;53.656;10.076;2024-01-15T12:09:11;-5321.94;;;-145.95;100.00
37648;BME280;23490;53.656;10.076;2024-01-15T12:11:38;13181.00;;;-145.95;100.00
37648;BME280;23490;53.656;10.076;2024-01-15T12:14:07;27644.19;;;-145.95;100.00
37648;BME280;23490;53.656;10.076;2024-01-15T12:16:33;29974.50;;;-145.95;100.00
37648;BME280;23490;53.656;10.076;2024-01-15T12:18:59;31010.72;;;-145.95;100.00